Time;durP1;ratioP1;P1;durP2;ratioP2;P2;SDS_P1;SDS_P2;PMS_P1;PMS_P2;Temp;Humidity;BMP_temperature;BMP_pressure;BME280_temperature;BME280_humidity;BME280_pressure;Samples;Min_cycle;Max_cycle;Signal;HPM_P1;HPM_P2
2022/02/23 00:07:55;;;;;;;4.15;2.28;;;5.30;99.90;;;;;;4860366;29;20089;-82
2022/02/23 00:10:26;;;;;;;5.28;2.97;;;5.30;99.90;;;;;;4833152;29;20065;-80
2022/02/23 00:21:00;;;;;;;;;;;;;;;;;;;;;
2022/02/23 00:45:30;;;;;;;;;;;;;;;;;;;;;
2022/02/23 01:37:14;;;;;;;;;;;;;;;;;;;;;
2022/02/23 02:08:20;;;;;;;;;;;;;;;;;;;;;
2022/02/23 02:18:07;;;;;;;2.70;1.92;;;3.90;99.90;;;;;;4902491;29;20246;-83
2022/02/23 02:24:57;;;;;;;;;;;;;;;;;;;;;
2022/02/23 02:55:21;;;;;;;4.10;2.00;;;3.80;99.90;;;;;;4862391;29;20060;-83
2022/02/23 03:02:24;;;;;;;5.65;2.78;;;3.70;99.90;;;;;;4933137;29;20618;-82
2022/02/23 03:06:08;;;;;;;4.78;2.35;;;3.70;99.90;;;;;;4931829;29;20039;-82
2022/02/23 04:43:06;;;;;;;;;;;;;;;;;;;;;
2022/02/23 04:52:42;;;;;;;2.38;1.88;;;3.30;99.90;;;;;;4943012;28;20130;-87
2022/02/23 05:09:49;;;;;;;;;;;;;;;;;;;;;
2022/02/23 05:29:46;;;;;;;2.05;1.88;;;3.40;99.90;;;;;;4912427;29;20032;-90
2022/02/23 05:32:50;;;;;;;;;;;;;;;;;;;;;
2022/02/23 05:39:15;;;;;;;4.30;1.90;;;3.40;99.90;;;;;;4976198;28;20037;-91
2022/02/23 05:41:57;;;;;;;2.90;1.80;;;3.40;99.90;;;;;;4982534;28;20055;-89
2022/02/23 05:45:19;;;;;;;3.38;1.85;;;3.40;99.90;;;;;;5043209;28;20025;-89
2022/02/23 05:47:45;;;;;;;3.17;1.92;;;3.40;99.90;;;;;;4972937;28;20573;-90
2022/02/23 05:50:24;;;;;;;3.40;1.90;;;3.40;99.90;;;;;;5033265;28;20049;-87
2022/02/23 05:57:07;;;;;;;4.20;2.30;;;3.50;99.90;;;;;;5011659;28;20084;-90
2022/02/23 05:59:45;;;;;;;5.47;1.85;;;3.50;99.90;;;;;;5008952;28;20124;-89
2022/02/23 06:02:35;;;;;;;4.50;2.17;;;3.50;99.90;;;;;;4999100;28;20037;-89
2022/02/23 06:05:40;;;;;;;3.90;2.25;;;3.50;99.90;;;;;;5031409;28;20522;-88
2022/02/23 06:15:54;;;;;;;3.38;2.03;;;3.60;99.90;;;;;;5001760;28;20511;-89
2022/02/23 06:18:56;;;;;;;;;;;;;;;;;;;;;
2022/02/23 06:21:45;;;;;;;3.35;2.05;;;3.70;99.90;;;;;;5011433;28;20032;-90
2022/02/23 06:24:36;;;;;;;3.20;1.90;;;3.70;99.90;;;;;;5010690;28;20030;-88
2022/02/23 06:27:06;;;;;;;4.03;2.40;;;3.80;99.90;;;;;;5001571;28;20050;-89
2022/02/23 06:33:21;;;;;;;5.00;2.40;;;3.90;99.90;;;;;;5004028;28;20109;-88
2022/02/23 06:36:02;;;;;;;6.13;2.05;;;4.00;99.90;;;;;;5023856;28;20045;-89
2022/02/23 06:38:40;;;;;;;9.68;4.63;;;4.00;99.90;;;;;;4981037;28;20061;-88
2022/02/23 06:41:24;;;;;;;6.32;3.17;;;4.10;99.90;;;;;;4988548;28;20386;-89
2022/02/23 06:44:18;;;;;;;9.93;2.67;;;4.10;99.90;;;;;;4992217;28;20128;-87
2022/02/23 06:46:54;;;;;;;3.10;2.13;;;4.20;99.90;;;;;;5002400;28;20038;-85
2022/02/23 06:49:39;;;;;;;4.03;2.15;;;4.30;99.90;;;;;;4995979;28;20539;-86
2022/02/23 06:52:21;;;;;;;6.97;2.53;;;4.30;99.90;;;;;;5030717;28;20080;-87
2022/02/23 06:54:56;;;;;;;17.70;2.30;;;4.50;99.90;;;;;;5046432;28;20025;-85
2022/02/23 06:57:22;;;;;;;4.50;2.58;;;4.50;99.90;;;;;;5052495;28;20127;-87
2022/02/23 06:59:52;;;;;;;6.13;2.45;;;4.60;99.90;;;;;;5043051;28;20108;-87
2022/02/23 07:02:45;;;;;;;;;;;;;;;;;;;;;
2022/02/23 07:05:15;;;;;;;6.03;2.80;;;4.80;99.90;;;;;;5035851;28;20022;-87
2022/02/23 07:08:02;;;;;;;6.63;2.67;;;4.90;99.90;;;;;;5045181;28;20403;-85
2022/02/23 07:10:31;;;;;;;5.80;2.85;;;5.10;99.90;;;;;;5038440;28;20052;-86
2022/02/23 07:13:58;;;;;;;12.30;2.78;;;5.20;99.90;;;;;;5038132;28;20029;-87
2022/02/23 07:16:31;;;;;;;14.65;3.25;;;5.30;99.90;;;;;;5036748;28;20049;-88
2022/02/23 07:19:06;;;;;;;6.78;2.67;;;5.50;99.90;;;;;;5033886;28;20052;-82
2022/02/23 07:21:35;;;;;;;4.45;2.60;;;5.60;99.90;;;;;;5046064;28;20087;-87
2022/02/23 07:25:03;;;;;;;6.80;2.00;;;5.90;99.90;;;;;;5033963;28;20022;-87
2022/02/23 07:27:43;;;;;;;6.75;2.67;;;6.20;99.90;;;;;;5026114;28;20056;-85
2022/02/23 07:30:11;;;;;;;6.97;2.95;;;6.40;99.90;;;;;;5037817;28;20037;-86
2022/02/23 07:32:45;;;;;;;4.55;2.83;;;6.50;99.90;;;;;;5039867;28;20025;-85
2022/02/23 07:35:54;;;;;;;15.70;4.47;;;6.50;99.90;;;;;;5038237;28;20495;-85
2022/02/23 07:38:53;;;;;;;9.93;4.82;;;6.60;99.90;;;;;;5034345;28;20092;-86
2022/02/23 07:41:23;;;;;;;11.30;6.05;;;6.90;99.90;;;;;;5040916;28;20034;-86
2022/02/23 07:44:05;;;;;;;11.07;4.63;;;7.20;99.90;;;;;;5031465;28;20071;-87
2022/02/23 07:46:51;;;;;;;14.73;5.07;;;7.40;99.90;;;;;;5039891;28;20040;-86
2022/02/23 07:49:26;;;;;;;8.10;5.22;;;7.60;99.90;;;;;;5033525;28;20041;-87
2022/02/23 07:52:02;;;;;;;12.05;4.78;;;7.70;99.90;;;;;;5033047;28;20033;-88
2022/02/23 07:54:51;;;;;;;10.23;2.90;;;7.70;99.90;;;;;;5036118;28;20025;-87
2022/02/23 07:57:17;;;;;;;5.57;3.08;;;7.70;99.90;;;;;;5045961;28;20116;-86
2022/02/23 07:59:45;;;;;;;14.15;3.92;;;7.70;99.90;;;;;;5045124;28;20100;-86
2022/02/23 08:02:38;;;;;;;8.30;4.63;;;7.80;99.90;;;;;;5040651;28;20025;-87
2022/02/23 08:05:19;;;;;;;12.77;6.03;;;7.90;99.90;;;;;;5047052;28;20025;-86
2022/02/23 08:08:09;;;;;;;10.25;4.40;;;8.00;99.90;;;;;;5040722;28;20135;-86
2022/02/23 08:10:35;;;;;;;10.40;4.80;;;8.20;99.90;;;;;;5046192;28;20061;-86
2022/02/23 08:13:22;;;;;;;12.77;4.97;;;8.40;99.90;;;;;;5043815;28;20502;-86
2022/02/23 08:22:17;;;;;;;5.70;3.00;;;8.70;99.90;;;;;;5045880;28;20059;-86
2022/02/23 08:24:27;;;;;;;2.67;2.30;;;8.80;99.90;;;;;;5036987;28;20030;-87
2022/02/23 08:26:54;;;;;;;5.57;3.13;;;8.90;99.90;;;;;;5040960;28;20044;-86
2022/02/23 08:29:25;;;;;;;9.50;4.22;;;8.90;99.90;;;;;;5041072;28;20114;-85
2022/02/23 08:31:57;;;;;;;6.65;2.78;;;8.90;99.90;;;;;;5039858;28;20072;-85
2022/02/23 08:34:26;;;;;;;10.40;3.42;;;9.00;99.90;;;;;;5039624;28;20022;-86
2022/02/23 08:36:55;;;;;;;3.88;2.53;;;9.10;99.90;;;;;;5040275;28;20045;-86
2022/02/23 08:39:21;;;;;;;5.78;2.35;;;9.20;99.90;;;;;;5043566;28;20025;-85
2022/02/23 08:41:48;;;;;;;8.38;2.63;;;9.20;99.90;;;;;;5043814;28;20033;-85
2022/02/23 08:44:14;;;;;;;4.97;2.90;;;9.30;99.90;;;;;;5043674;28;20056;-85
2022/02/23 08:46:43;;;;;;;8.85;3.40;;;9.40;99.90;;;;;;5043287;28;20032;-85
2022/02/23 08:49:35;;;;;;;5.97;2.88;;;9.50;99.90;;;;;;5032989;28;20550;-85
2022/02/23 08:52:01;;;;;;;4.10;2.80;;;9.60;99.90;;;;;;5048320;28;20416;-85
2022/02/23 08:54:37;;;;;;;6.28;2.80;;;9.70;99.90;;;;;;5039842;28;20013;-87
2022/02/23 08:57:03;;;;;;;6.45;2.03;;;9.80;99.90;;;;;;5043114;28;20037;-87
2022/02/23 08:59:53;;;;;;;3.30;2.20;;;10.00;99.90;;;;;;5049460;28;20048;-86
2022/02/23 09:02:27;;;;;;;4.50;2.75;;;10.30;99.90;;;;;;5038463;28;20075;-87
2022/02/23 09:05:14;;;;;;;3.08;2.30;;;10.50;99.90;;;;;;5033605;28;20021;-85
2022/02/23 09:07:43;;;;;;;3.03;1.58;;;10.60;99.90;;;;;;5048550;28;20567;-86
2022/02/23 09:10:25;;;;;;;;;;;;;;;;;;;;;
2022/02/23 09:12:54;;;;;;;3.00;2.00;;;10.90;99.90;;;;;;5040431;28;20036;-86
2022/02/23 09:15:23;;;;;;;5.03;2.17;;;10.90;99.90;;;;;;5041798;28;20461;-86
2022/02/23 09:17:54;;;;;;;2.47;1.75;;;10.90;99.90;;;;;;5039175;28;20084;-86
2022/02/23 09:20:23;;;;;;;3.28;2.00;;;11.00;99.90;;;;;;5046030;28;20655;-88
2022/02/23 09:22:54;;;;;;;6.45;1.98;;;11.10;99.90;;;;;;5039320;28;20033;-87
2022/02/23 09:25:24;;;;;;;3.13;1.95;;;11.20;99.90;;;;;;5037893;28;20082;-87
2022/02/23 09:27:50;;;;;;;4.18;2.20;;;11.10;99.90;;;;;;5038758;28;20042;-86
2022/02/23 09:30:16;;;;;;;8.10;2.10;;;11.20;99.90;;;;;;5044470;28;20026;-86
2022/02/23 09:32:42;;;;;;;6.43;2.03;;;11.30;99.90;;;;;;5040623;28;20052;-85
2022/02/23 09:35:14;;;;;;;4.15;1.50;;;11.30;99.90;;;;;;5044422;28;20056;-86
2022/02/23 09:38:03;;;;;;;;;;;;;;;;;;;;;
2022/02/23 09:40:35;;;;;;;5.85;2.08;;;11.50;99.90;;;;;;5033665;28;20029;-86
2022/02/23 09:43:11;;;;;;;4.38;2.42;;;11.60;99.90;;;;;;5040444;28;20021;-86
2022/02/23 09:45:41;;;;;;;6.65;2.40;;;11.60;99.90;;;;;;5044268;28;20025;-85
2022/02/23 09:48:11;;;;;;;6.70;2.50;;;11.70;99.90;;;;;;5041417;28;20029;-86
2022/02/23 09:50:39;;;;;;;6.95;2.47;;;11.70;99.90;;;;;;5033414;28;20068;-85
2022/02/23 09:53:06;;;;;;;5.07;2.58;;;11.60;99.90;;;;;;5038973;28;20028;-85
2022/02/23 09:55:32;;;;;;;7.47;2.08;;;11.60;99.90;;;;;;5047499;28;20060;-85
2022/02/23 09:58:08;;;;;;;6.60;2.47;;;11.60;99.90;;;;;;5041440;28;20025;-85
2022/02/23 10:00:49;;;;;;;4.45;2.42;;;11.70;99.90;;;;;;5039390;28;20032;-84
2022/02/23 10:03:18;;;;;;;4.05;2.30;;;11.90;99.90;;;;;;5037620;28;20452;-85
2022/02/23 10:05:50;;;;;;;2.80;1.60;;;12.10;95.60;;;;;;5037944;28;20025;-86
2022/02/23 10:08:16;;;;;;;5.47;2.38;;;12.00;79.60;;;;;;5040279;28;20060;-87
2022/02/23 10:10:44;;;;;;;5.75;2.30;;;12.00;87.00;;;;;;5044038;28;20029;-86
2022/02/23 10:13:10;;;;;;;4.03;1.48;;;12.00;84.70;;;;;;5040064;28;20059;-88
2022/02/23 10:15:42;;;;;;;8.52;2.10;;;12.10;88.30;;;;;;5040004;28;20508;-87
2022/02/23 10:18:17;;;;;;;9.23;1.63;;;12.10;91.60;;;;;;5043072;28;20491;-88
2022/02/23 10:20:43;;;;;;;2.55;1.45;;;12.10;87.90;;;;;;5028799;28;20065;-88
2022/02/23 10:23:23;;;;;;;2.08;1.40;;;12.10;89.20;;;;;;5040906;28;20021;-87
2022/02/23 10:25:54;;;;;;;1.48;1.35;;;12.10;88.90;;;;;;5038573;28;20061;-87
2022/02/23 10:28:26;;;;;;;2.47;1.17;;;12.10;83.00;;;;;;5041308;28;20112;-86
2022/02/23 10:31:00;;;;;;;1.30;1.20;;;12.00;86.10;;;;;;5042739;28;20025;-86
2022/02/23 10:33:30;;;;;;;3.25;1.20;;;12.00;84.60;;;;;;5046095;28;20700;-85
2022/02/23 10:36:05;;;;;;;2.00;1.00;;;12.10;80.80;;;;;;5039950;28;20720;-86
2022/02/23 10:38:47;;;;;;;2.05;0.95;;;12.10;81.20;;;;;;5039623;28;20449;-86
2022/02/23 10:41:28;;;;;;;2.30;1.40;;;12.20;80.90;;;;;;5038399;28;20487;-86
2022/02/23 10:43:54;;;;;;;1.57;1.40;;;12.30;85.60;;;;;;5038642;28;20084;-86
2022/02/23 10:46:23;;;;;;;4.43;1.60;;;12.30;80.00;;;;;;5039070;28;20029;-86
2022/02/23 10:48:59;;;;;;;4.38;1.40;;;12.30;81.20;;;;;;5039372;28;20055;-85
2022/02/23 10:51:32;;;;;;;2.47;1.40;;;12.30;79.20;;;;;;5047003;28;20365;-85
2022/02/23 10:54:09;;;;;;;1.75;1.30;;;12.30;82.10;;;;;;5043827;28;20048;-85
2022/02/23 10:56:43;;;;;;;1.30;1.20;;;12.20;81.00;;;;;;5045632;28;20068;-85
2022/02/23 10:59:17;;;;;;;1.80;1.30;;;12.30;78.50;;;;;;5045697;28;20606;-86
2022/02/23 11:01:45;;;;;;;5.00;1.75;;;12.30;77.00;;;;;;5045702;28;20024;-86
2022/02/23 11:04:15;;;;;;;3.17;1.60;;;12.40;78.00;;;;;;5045829;28;20108;-86
2022/02/23 11:06:42;;;;;;;4.22;1.60;;;12.30;74.70;;;;;;5047084;28;20075;-86
2022/02/23 11:09:10;;;;;;;1.88;1.45;;;12.40;76.40;;;;;;5045331;28;20480;-87
2022/02/23 11:11:37;;;;;;;4.43;2.50;;;12.50;77.00;;;;;;5047419;28;20120;-87
2022/02/23 11:14:07;;;;;;;6.00;2.50;;;12.50;78.50;;;;;;5044965;28;20025;-87
2022/02/23 11:16:34;;;;;;;4.70;2.03;;;12.50;82.20;;;;;;5048702;28;20037;-86
2022/02/23 11:19:03;;;;;;;5.57;1.85;;;12.50;87.60;;;;;;5043204;28;20060;-86
2022/02/23 11:21:36;;;;;;;4.60;2.13;;;12.40;91.10;;;;;;5044468;28;20032;-87
2022/02/23 11:24:10;;;;;;;6.53;2.47;;;12.30;93.70;;;;;;5044288;28;20506;-86
2022/02/23 11:26:46;;;;;;;6.55;2.17;;;12.20;93.20;;;;;;5040046;28;20385;-86
2022/02/23 11:29:15;;;;;;;6.90;2.30;;;12.10;97.00;;;;;;5042304;28;20566;-87
2022/02/23 11:31:40;;;;;;;3.83;1.65;;;12.10;97.60;;;;;;5040756;28;20044;-86
2022/02/23 11:34:08;;;;;;;2.58;1.25;;;12.10;94.30;;;;;;5033800;28;20435;-87
2022/02/23 11:36:44;;;;;;;2.80;1.50;;;12.10;91.90;;;;;;5044598;28;20091;-88
2022/02/23 11:39:26;;;;;;;2.63;1.38;;;12.20;93.20;;;;;;5041964;28;20040;-87
2022/02/23 11:41:54;;;;;;;3.80;1.20;;;12.20;87.80;;;;;;5045647;28;20046;-88
2022/02/23 11:44:31;;;;;;;3.05;1.48;;;12.20;91.40;;;;;;5046100;28;20025;-87
2022/02/23 11:47:09;;;;;;;4.15;1.30;;;12.30;89.50;;;;;;5044736;28;20507;-87
2022/02/23 11:49:36;;;;;;;1.73;1.10;;;12.30;88.00;;;;;;5040056;28;20462;-87
2022/02/23 11:52:15;;;;;;;1.75;1.10;;;12.30;82.10;;;;;;5042518;28;20110;-87
2022/02/23 11:55:05;;;;;;;4.38;1.42;;;12.50;81.10;;;;;;5039299;28;20032;-88
2022/02/23 11:58:14;;;;;;;3.63;1.05;;;12.50;81.20;;;;;;5039196;28;20075;-86
2022/02/23 12:00:43;;;;;;;3.33;1.40;;;12.50;79.20;;;;;;5021396;28;20067;-87
2022/02/23 12:03:23;;;;;;;1.20;0.90;;;12.50;76.00;;;;;;5043809;28;20025;-87
2022/02/23 12:05:52;;;;;;;3.38;1.17;;;12.50;74.70;;;;;;5041163;28;20063;-87
2022/02/23 12:08:32;;;;;;;1.30;1.20;;;12.50;76.50;;;;;;5044900;28;20108;-87
2022/02/23 12:10:58;;;;;;;5.32;1.52;;;12.60;77.00;;;;;;5042099;28;20017;-88
2022/02/23 12:13:38;;;;;;;2.15;1.00;;;12.80;79.00;;;;;;5037468;28;20044;-88
2022/02/23 12:16:27;;;;;;;3.60;1.30;;;12.90;75.90;;;;;;5044515;28;20038;-87
2022/02/23 12:18:59;;;;;;;2.13;1.10;;;12.90;76.50;;;;;;5043966;28;20076;-87
2022/02/23 12:21:52;;;;;;;1.90;1.00;;;12.90;74.80;;;;;;5040666;28;20100;-88
2022/02/23 12:24:23;;;;;;;1.02;0.93;;;12.80;72.70;;;;;;5043248;28;20065;-82
2022/02/23 12:26:53;;;;;;;2.25;1.40;;;12.70;73.00;;;;;;5038740;28;20053;-85
2022/02/23 12:29:25;;;;;;;3.42;1.52;;;12.80;78.70;;;;;;5048902;28;20036;-94
2022/02/23 12:31:51;;;;;;;1.15;1.05;;;14.00;75.30;;;;;;5047459;28;20038;-90
2022/02/23 12:34:19;;;;;;;2.08;1.25;;;17.20;66.30;;;;;;5056396;28;20021;-93
2022/02/23 12:36:53;;;;;;;2.92;1.55;;;19.70;61.60;;;;;;5063922;28;20032;-91
2022/02/23 12:39:29;;;;;;;5.72;1.38;;;20.60;56.30;;;;;;5060257;28;20014;-86
2022/02/23 12:42:04;;;;;;;2.30;1.40;;;21.00;55.10;;;;;;5042240;28;20409;-87
2022/02/23 12:44:34;;;;;;;2.55;1.55;;;21.50;51.90;;;;;;5042594;28;20018;-85
2022/02/23 12:47:03;;;;;;;5.65;1.58;;;22.20;50.20;;;;;;5044094;28;20028;-86
2022/02/23 12:49:30;;;;;;;3.92;2.13;;;22.70;50.60;;;;;;5035407;28;20040;-90
2022/02/23 12:51:57;;;;;;;3.08;1.50;;;23.40;49.60;;;;;;5058434;28;20424;-88
2022/02/23 12:54:25;;;;;;;5.38;1.50;;;23.90;46.90;;;;;;5036349;28;20128;-85
2022/02/23 12:56:54;;;;;;;3.35;1.58;;;23.50;46.80;;;;;;5050938;28;20033;-86
2022/02/23 12:59:25;;;;;;;9.25;1.30;;;23.60;47.20;;;;;;5052101;28;20564;-89
2022/02/23 13:02:11;;;;;;;3.10;1.40;;;23.60;47.20;;;;;;5051772;28;20021;-87
2022/02/23 13:04:40;;;;;;;5.18;1.60;;;23.60;47.70;;;;;;5050857;28;20013;-87
2022/02/23 13:07:13;;;;;;;2.92;1.60;;;23.60;46.90;;;;;;5049657;28;20033;-90
2022/02/23 13:09:44;;;;;;;2.67;1.40;;;23.10;47.80;;;;;;5057753;28;20357;-90
2022/02/23 13:12:11;;;;;;;3.22;1.20;;;22.90;46.80;;;;;;5047549;28;20539;-91
2022/02/23 13:14:46;;;;;;;3.40;1.10;;;22.60;46.70;;;;;;5039404;28;20029;-88
2022/02/23 13:17:13;;;;;;;2.88;1.33;;;22.70;46.20;;;;;;5051803;28;20060;-87
2022/02/23 13:19:44;;;;;;;1.55;1.20;;;23.00;46.70;;;;;;5039747;28;20018;-90
2022/02/23 13:22:23;;;;;;;1.60;1.40;;;23.60;45.30;;;;;;5042673;28;20056;-89
2022/02/23 13:24:51;;;;;;;3.00;1.60;;;23.70;44.20;;;;;;5045759;28;20040;-89
2022/02/23 13:27:23;;;;;;;2.58;1.60;;;23.40;44.50;;;;;;5048111;28;21088;-84
2022/02/23 13:29:59;;;;;;;2.58;1.30;;;23.30;44.80;;;;;;5062598;28;20021;-93
2022/02/23 13:32:30;;;;;;;5.53;1.45;;;23.80;44.00;;;;;;5050937;28;20036;-93
2022/02/23 13:34:57;;;;;;;5.90;1.20;;;23.80;44.30;;;;;;5046950;28;20104;-89
2022/02/23 13:37:25;;;;;;;4.25;1.27;;;24.60;43.60;;;;;;5047710;28;20036;-86
2022/02/23 13:40:04;;;;;;;2.00;1.33;;;24.60;43.50;;;;;;5035922;28;20027;-85
2022/02/23 13:42:35;;;;;;;4.82;1.40;;;24.20;42.70;;;;;;5034106;28;20029;-86
2022/02/23 13:45:12;;;;;;;3.33;1.50;;;23.80;44.10;;;;;;5050540;28;20049;-88
2022/02/23 13:47:40;;;;;;;2.63;1.17;;;23.90;44.10;;;;;;5045079;28;20113;-88
2022/02/23 13:50:21;;;;;;;9.50;1.40;;;24.40;43.40;;;;;;5039324;28;20025;-85
2022/02/23 13:52:53;;;;;;;2.75;1.42;;;24.60;42.60;;;;;;5043775;28;20033;-86
2022/02/23 13:55:30;;;;;;;5.30;1.53;;;24.60;42.60;;;;;;5038327;28;20096;-87
2022/02/23 13:58:01;;;;;;;9.23;1.52;;;24.60;42.90;;;;;;5040085;28;20080;-84
2022/02/23 14:00:30;;;;;;;5.25;1.40;;;24.40;43.10;;;;;;5047721;28;20048;-89
2022/02/23 14:03:14;;;;;;;2.65;1.17;;;24.50;42.30;;;;;;5046121;28;20033;-90
2022/02/23 14:05:42;;;;;;;3.58;1.40;;;24.00;42.50;;;;;;5051845;28;20021;-91
2022/02/23 14:08:09;;;;;;;1.75;1.17;;;24.50;41.80;;;;;;5047004;28;20453;-90
2022/02/23 14:10:37;;;;;;;4.80;1.30;;;25.00;41.80;;;;;;5047111;28;20029;-90
2022/02/23 14:13:09;;;;;;;1.33;1.10;;;25.00;40.70;;;;;;5052262;28;20029;-89
2022/02/23 14:15:39;;;;;;;1.73;1.20;;;25.20;41.30;;;;;;5046696;28;20034;-88
2022/02/23 14:18:28;;;;;;;8.77;1.42;;;24.90;41.10;;;;;;5047242;28;20041;-88
2022/02/23 14:20:57;;;;;;;5.65;1.50;;;24.60;41.70;;;;;;5037030;28;20029;-89
2022/02/23 14:23:27;;;;;;;2.92;1.55;;;24.40;42.50;;;;;;5049291;28;20028;-89
2022/02/23 14:26:03;;;;;;;6.75;1.65;;;24.30;43.10;;;;;;5049323;28;20046;-89
2022/02/23 14:28:36;;;;;;;5.68;2.05;;;24.00;43.10;;;;;;5044378;28;20074;-89
2022/02/23 14:31:21;;;;;;;5.43;1.52;;;23.00;43.10;;;;;;5047087;28;20021;-89
2022/02/23 14:33:47;;;;;;;15.13;2.47;;;22.10;45.50;;;;;;5055689;28;20066;-88
2022/02/23 14:36:13;;;;;;;5.28;1.90;;;21.80;46.40;;;;;;5043796;28;20033;-89
2022/02/23 14:38:39;;;;;;;4.72;1.50;;;21.60;47.00;;;;;;5048261;28;20526;-89
2022/02/23 14:41:05;;;;;;;5.95;3.78;;;21.90;47.20;;;;;;5048131;28;20018;-88
2022/02/23 14:43:31;;;;;;;4.10;2.50;;;22.30;46.40;;;;;;5049921;28;20123;-89
2022/02/23 14:45:56;;;;;;;3.55;2.38;;;22.10;47.50;;;;;;5057911;28;20064;-88
2022/02/23 14:48:22;;;;;;;3.30;1.80;;;22.20;47.00;;;;;;5048457;28;20651;-88
2022/02/23 14:50:50;;;;;;;3.55;1.90;;;22.30;46.70;;;;;;5048502;28;20026;-89
2022/02/23 14:53:28;;;;;;;5.13;1.80;;;22.70;47.10;;;;;;5048907;28;20388;-90
2022/02/23 14:55:54;;;;;;;3.00;1.83;;;22.80;47.50;;;;;;5049166;28;20049;-88
2022/02/23 14:58:21;;;;;;;4.68;2.08;;;22.40;47.30;;;;;;5044986;28;20442;-88
2022/02/23 15:00:49;;;;;;;6.55;2.17;;;21.30;48.70;;;;;;5049043;28;20029;-89
2022/02/23 15:03:15;;;;;;;3.38;1.70;;;20.80;49.70;;;;;;5064137;28;20025;-89
2022/02/23 15:05:41;;;;;;;2.83;1.50;;;20.70;50.50;;;;;;5048755;28;20033;-89
2022/02/23 15:08:07;;;;;;;4.38;1.70;;;20.90;50.80;;;;;;5052591;28;20025;-90
2022/02/23 15:10:34;;;;;;;3.40;1.65;;;20.90;50.50;;;;;;5054153;28;20031;-90
2022/02/23 15:13:01;;;;;;;4.30;1.70;;;20.50;51.50;;;;;;5052563;28;20418;-90
2022/02/23 15:15:26;;;;;;;1.80;1.38;;;20.00;52.70;;;;;;5059795;28;20028;-90
2022/02/23 15:17:53;;;;;;;2.85;1.48;;;20.30;52.40;;;;;;5044471;28;20061;-88
2022/02/23 15:20:21;;;;;;;4.25;1.55;;;20.50;52.50;;;;;;5042947;28;20044;-88
2022/02/23 15:22:46;;;;;;;4.25;1.60;;;20.40;52.00;;;;;;5044892;28;20040;-86
2022/02/23 15:25:13;;;;;;;3.33;1.58;;;20.60;52.00;;;;;;5048661;28;20029;-89
2022/02/23 15:27:40;;;;;;;4.15;1.98;;;20.30;52.70;;;;;;5052657;28;20124;-90
2022/02/23 15:30:09;;;;;;;4.28;1.40;;;20.20;52.90;;;;;;5053449;28;20044;-89
2022/02/23 15:32:35;;;;;;;4.30;1.80;;;19.60;53.40;;;;;;5066836;28;20546;-89
2022/02/23 15:35:00;;;;;;;3.60;1.52;;;19.20;54.20;;;;;;5063003;28;20060;-88
2022/02/23 15:37:26;;;;;;;7.20;1.73;;;19.00;54.50;;;;;;5047117;28;20369;-88
2022/02/23 15:39:52;;;;;;;6.63;1.75;;;18.50;55.10;;;;;;5035153;28;20030;-89
2022/02/23 15:42:18;;;;;;;4.28;2.08;;;18.10;56.10;;;;;;5044392;28;20112;-87
2022/02/23 15:44:44;;;;;;;6.25;3.72;;;17.90;56.50;;;;;;5045348;28;20627;-87
2022/02/23 15:47:09;;;;;;;9.95;4.82;;;17.80;57.20;;;;;;5042855;28;20022;-88
2022/02/23 15:49:35;;;;;;;5.25;3.35;;;17.80;57.20;;;;;;5037633;28;20025;-87
2022/02/23 15:52:01;;;;;;;5.93;2.30;;;17.50;58.40;;;;;;5048835;28;20408;-87
2022/02/23 15:54:27;;;;;;;3.97;1.90;;;17.20;59.70;;;;;;5032787;28;20101;-89
2022/02/23 15:56:55;;;;;;;3.97;1.70;;;17.20;59.80;;;;;;5046857;28;20069;-88
2022/02/23 15:59:21;;;;;;;3.42;2.00;;;17.50;58.90;;;;;;5048625;28;20025;-89
2022/02/23 16:01:50;;;;;;;4.70;2.00;;;18.00;56.90;;;;;;5050791;28;20036;-87
2022/02/23 16:04:17;;;;;;;5.60;2.25;;;18.10;57.50;;;;;;5042125;28;20048;-87
2022/02/23 16:06:44;;;;;;;7.65;2.20;;;17.60;56.50;;;;;;5053199;28;20033;-87
2022/02/23 16:09:10;;;;;;;7.22;2.42;;;17.10;58.30;;;;;;5058881;28;20025;-88
2022/02/23 16:11:35;;;;;;;9.38;2.60;;;16.60;59.90;;;;;;5054303;28;20036;-89
2022/02/23 16:14:20;;;;;;;6.75;2.63;;;16.10;62.20;;;;;;5048795;28;20022;-87
2022/02/23 16:16:51;;;;;;;5.82;2.47;;;15.70;63.60;;;;;;5052547;28;20064;-88
2022/02/23 16:19:17;;;;;;;8.73;2.92;;;14.70;66.90;;;;;;5058489;28;20071;-89
2022/02/23 16:21:44;;;;;;;8.43;3.20;;;13.80;70.10;;;;;;5055837;28;20036;-87
2022/02/23 16:24:10;;;;;;;16.00;3.13;;;13.30;75.20;;;;;;5065111;28;20025;-89
2022/02/23 16:26:36;;;;;;;15.57;2.75;;;12.70;80.50;;;;;;5060124;28;20116;-90
2022/02/23 16:29:01;;;;;;;7.80;2.55;;;12.20;92.20;;;;;;5049765;28;20472;-87
2022/02/23 16:31:27;;;;;;;8.20;2.40;;;11.80;97.60;;;;;;5060998;28;20036;-88
2022/02/23 16:33:57;;;;;;;6.57;1.70;;;11.60;99.90;;;;;;5037200;28;20033;-88
2022/02/23 16:36:25;;;;;;;15.98;3.05;;;11.30;99.90;;;;;;5047097;28;20033;-89
2022/02/23 16:38:52;;;;;;;5.32;3.55;;;11.20;99.90;;;;;;5056601;28;20025;-89
2022/02/23 16:41:19;;;;;;;7.25;2.90;;;10.90;99.90;;;;;;5043952;28;20040;-89
2022/02/23 16:43:45;;;;;;;4.78;2.70;;;10.80;99.90;;;;;;5053974;28;20450;-89
2022/02/23 16:46:12;;;;;;;8.52;3.00;;;10.60;99.90;;;;;;5045362;28;20029;-89
2022/02/23 16:48:38;;;;;;;13.20;2.90;;;10.50;99.90;;;;;;5060075;28;20025;-89
2022/02/23 16:51:04;;;;;;;6.40;2.65;;;10.40;99.90;;;;;;5046510;28;20107;-88
2022/02/23 16:53:31;;;;;;;5.97;2.63;;;10.30;99.90;;;;;;5046874;28;20029;-88
2022/02/23 16:55:57;;;;;;;11.65;2.45;;;10.30;99.90;;;;;;5050503;28;20044;-88
2022/02/23 16:58:23;;;;;;;5.65;1.90;;;10.30;99.90;;;;;;5053790;28;20029;-88
2022/02/23 17:00:48;;;;;;;7.07;1.80;;;10.30;99.90;;;;;;5054780;28;20025;-88
2022/02/23 17:03:14;;;;;;;6.93;1.80;;;10.30;99.90;;;;;;5064670;28;20033;-88
2022/02/23 17:05:41;;;;;;;10.13;1.95;;;10.20;99.90;;;;;;5046746;28;20025;-88
2022/02/23 17:08:10;;;;;;;6.18;2.63;;;10.20;99.90;;;;;;5058271;28;20025;-90
2022/02/23 17:10:37;;;;;;;7.93;3.22;;;10.10;99.90;;;;;;5070082;28;20032;-89
2022/02/23 17:13:02;;;;;;;20.45;9.15;;;10.00;99.90;;;;;;5052423;28;20021;-87
2022/02/23 17:15:29;;;;;;;16.23;7.47;;;9.90;99.90;;;;;;5056591;28;20036;-89
2022/02/23 17:17:55;;;;;;;13.02;5.40;;;9.80;99.90;;;;;;5060727;28;20114;-88
2022/02/23 17:20:21;;;;;;;11.68;4.30;;;9.60;99.90;;;;;;5068190;28;20036;-87
2022/02/23 17:22:47;;;;;;;16.08;6.68;;;9.50;99.90;;;;;;5082215;28;20032;-87
2022/02/23 17:25:13;;;;;;;11.68;4.90;;;9.40;99.90;;;;;;5065181;28;20435;-87
2022/02/23 17:27:40;;;;;;;12.30;4.80;;;9.30;99.90;;;;;;5072457;28;20059;-87
2022/02/23 17:30:08;;;;;;;32.35;18.20;;;9.20;99.90;;;;;;5069344;28;20057;-87
2022/02/23 17:32:35;;;;;;;23.27;11.13;;;9.20;99.90;;;;;;5043334;28;20030;-87
2022/02/23 17:35:03;;;;;;;21.42;10.68;;;9.20;99.90;;;;;;5058719;28;20021;-87
2022/02/23 17:37:29;;;;;;;22.75;13.07;;;9.10;99.90;;;;;;5057854;28;20037;-87
2022/02/23 17:39:55;;;;;;;22.58;11.25;;;9.00;99.90;;;;;;5055979;28;20022;-87
2022/02/23 17:42:22;;;;;;;16.50;7.03;;;9.00;99.90;;;;;;5048531;28;20040;-87
2022/02/23 17:44:49;;;;;;;42.70;28.35;;;8.90;99.90;;;;;;5044664;28;20035;-86
2022/02/23 17:47:15;;;;;;;36.33;19.23;;;8.80;99.90;;;;;;5065625;28;20013;-86
2022/02/23 17:49:41;;;;;;;22.83;12.77;;;8.70;99.90;;;;;;5063005;28;20029;-87
2022/02/23 17:52:07;;;;;;;18.63;12.82;;;8.60;99.90;;;;;;5052316;28;20042;-88
2022/02/23 17:54:34;;;;;;;12.55;9.38;;;8.50;99.90;;;;;;5052543;28;20024;-90
2022/02/23 17:57:03;;;;;;;10.38;7.60;;;8.50;99.90;;;;;;5060803;28;20041;-86
2022/02/23 17:59:31;;;;;;;15.68;9.27;;;8.40;99.90;;;;;;5055405;28;20094;-89
2022/02/23 18:01:57;;;;;;;19.90;11.32;;;8.30;99.90;;;;;;5045700;28;20033;-88
2022/02/23 18:04:23;;;;;;;19.48;10.93;;;8.20;99.90;;;;;;5061254;28;20047;-90
2022/02/23 18:06:50;;;;;;;12.50;7.93;;;8.10;99.90;;;;;;5039123;28;20037;-90
2022/02/23 18:09:16;;;;;;;16.88;8.73;;;8.00;99.90;;;;;;5035474;28;20112;-89
2022/02/23 18:11:42;;;;;;;11.60;6.72;;;7.90;99.90;;;;;;5048193;28;20040;-89
2022/02/23 18:14:09;;;;;;;12.90;6.93;;;7.80;99.90;;;;;;5045950;28;20041;-88
2022/02/23 18:16:35;;;;;;;17.17;8.27;;;7.80;99.90;;;;;;5053789;28;20055;-89
2022/02/23 18:19:03;;;;;;;14.85;6.60;;;7.70;99.90;;;;;;5047973;28;20021;-89
2022/02/23 18:21:30;;;;;;;16.55;7.10;;;7.60;99.90;;;;;;5046258;28;20397;-90
2022/02/23 18:23:55;;;;;;;15.32;8.00;;;7.60;99.90;;;;;;5048849;28;20047;-90
2022/02/23 18:26:21;;;;;;;15.00;10.00;;;7.50;99.90;;;;;;5042030;28;20567;-90
2022/02/23 18:28:47;;;;;;;13.88;8.20;;;7.40;99.90;;;;;;5065498;28;20089;-89
2022/02/23 18:31:14;;;;;;;17.45;10.93;;;7.40;99.90;;;;;;5052333;28;20032;-90
2022/02/23 18:33:41;;;;;;;12.82;8.48;;;7.30;99.90;;;;;;5042906;28;20029;-91
2022/02/23 18:36:07;;;;;;;39.67;29.98;;;7.30;99.90;;;;;;5045447;28;20597;-89
2022/02/23 18:38:33;;;;;;;32.28;22.13;;;7.30;99.90;;;;;;5045216;28;20136;-90
2022/02/23 18:41:04;;;;;;;9.13;6.75;;;7.30;99.90;;;;;;5053503;28;20048;-91
2022/02/23 18:43:32;;;;;;;11.60;7.88;;;7.40;99.90;;;;;;5055251;28;20036;-92
2022/02/23 18:45:58;;;;;;;12.63;7.90;;;7.30;99.90;;;;;;5043139;28;20025;-92
2022/02/23 18:48:24;;;;;;;11.02;6.78;;;7.30;99.90;;;;;;5040421;28;20028;-91